Time;durP1;ratioP1;P1;durP2;ratioP2;P2;SDS_P1;SDS_P2;PMS_P1;PMS_P2;Temp;Humidity;BMP_temperature;BMP_pressure;BME280_temperature;BME280_humidity;BME280_pressure;Samples;Min_cycle;Max_cycle;Signal;HPM_P1;HPM_P2
2021/12/01 00:02:16;;;;;;;41.30;24.05;;;9.80;99.90;;;;;;5019691;28;20857;-87
2021/12/01 00:04:42;;;;;;;42.67;26.02;;;9.80;99.90;;;;;;4994409;28;20118;-87
2021/12/01 00:07:09;;;;;;;41.65;25.58;;;9.80;99.90;;;;;;4996479;28;20084;-85
2021/12/01 00:09:35;;;;;;;45.88;26.38;;;9.80;99.90;;;;;;5022925;28;20050;-87
2021/12/01 00:12:03;;;;;;;44.88;26.75;;;9.80;99.90;;;;;;5026549;28;20071;-87
2021/12/01 00:14:29;;;;;;;44.85;27.42;;;9.80;99.90;;;;;;5029911;27;20157;-87
2021/12/01 00:16:55;;;;;;;47.67;27.73;;;9.80;99.90;;;;;;4999159;27;20236;-87
2021/12/01 00:19:23;;;;;;;49.03;28.45;;;9.80;99.90;;;;;;5011092;27;20840;-87
2021/12/01 00:21:52;;;;;;;45.92;27.35;;;9.90;99.90;;;;;;5019062;27;20069;-88
2021/12/01 00:24:18;;;;;;;50.00;29.65;;;9.80;99.90;;;;;;5014447;27;20456;-85
2021/12/01 00:26:47;;;;;;;47.55;29.42;;;9.80;99.90;;;;;;5027507;27;20563;-86
2021/12/01 00:29:12;;;;;;;49.60;29.83;;;9.80;99.90;;;;;;4994379;27;20893;-86
2021/12/01 00:31:38;;;;;;;47.17;30.85;;;9.80;99.90;;;;;;5005146;27;20047;-87
2021/12/01 00:34:04;;;;;;;51.58;30.90;;;9.80;99.90;;;;;;5030029;27;20047;-85
2021/12/01 00:36:30;;;;;;;50.05;31.65;;;9.80;99.90;;;;;;5026924;27;20118;-87
2021/12/01 00:39:04;;;;;;;52.72;30.85;;;9.80;99.90;;;;;;5008740;27;20507;-87
2021/12/01 00:41:29;;;;;;;52.20;32.75;;;9.80;99.90;;;;;;5034152;27;20202;-87
2021/12/01 00:43:55;;;;;;;48.53;31.10;;;9.80;99.90;;;;;;5008093;27;20079;-88
2021/12/01 00:46:34;;;;;;;53.35;33.17;;;9.80;99.90;;;;;;5002056;27;20574;-89
2021/12/01 00:49:00;;;;;;;49.92;31.65;;;9.80;99.90;;;;;;5026781;27;20139;-87
2021/12/01 00:51:26;;;;;;;47.22;32.15;;;9.80;99.90;;;;;;4994366;27;20043;-86
2021/12/01 00:53:52;;;;;;;47.83;31.40;;;9.90;99.90;;;;;;5029474;27;20122;-87
2021/12/01 00:56:17;;;;;;;47.17;31.85;;;9.90;99.90;;;;;;5033812;27;20246;-87
2021/12/01 00:58:43;;;;;;;47.45;31.98;;;9.90;99.90;;;;;;5025026;27;20063;-85
2021/12/01 01:01:09;;;;;;;47.80;31.10;;;9.90;99.90;;;;;;5026890;27;20591;-86
2021/12/01 01:03:35;;;;;;;46.42;29.95;;;10.00;99.90;;;;;;5031379;27;20182;-86
2021/12/01 01:06:01;;;;;;;43.72;29.60;;;9.90;99.90;;;;;;5006488;27;20416;-85
2021/12/01 01:08:27;;;;;;;43.13;28.83;;;9.90;99.90;;;;;;5021792;27;20043;-87
2021/12/01 01:16:24;;;;;;;52.40;29.40;;;10.00;99.90;;;;;;4984470;27;20090;-86
2021/12/01 01:19:03;;;;;;;49.40;29.17;;;9.90;99.90;;;;;;5018200;27;20246;-88
2021/12/01 01:21:32;;;;;;;47.90;28.65;;;10.00;99.90;;;;;;5008875;27;20047;-87
2021/12/01 01:24:03;;;;;;;50.58;28.73;;;9.90;99.90;;;;;;5006839;27;20043;-87
2021/12/01 01:26:31;;;;;;;45.45;27.55;;;9.90;99.90;;;;;;5007759;27;20622;-88
2021/12/01 01:29:00;;;;;;;45.47;27.50;;;10.00;99.90;;;;;;4998439;27;20151;-85
2021/12/01 01:31:26;;;;;;;44.13;26.80;;;10.00;99.90;;;;;;5028514;27;20566;-86
2021/12/01 01:33:52;;;;;;;48.33;27.50;;;9.90;99.90;;;;;;5025492;27;20125;-88
2021/12/01 01:36:21;;;;;;;45.47;25.00;;;10.00;99.90;;;;;;5032097;27;20126;-88
2021/12/01 01:38:47;;;;;;;45.03;26.50;;;10.00;99.90;;;;;;5037567;27;20566;-88
2021/12/01 01:41:14;;;;;;;35.67;23.50;;;10.00;99.90;;;;;;4997239;27;20074;-89
2021/12/01 01:43:41;;;;;;;39.53;25.33;;;10.00;99.90;;;;;;4995247;27;20058;-86
2021/12/01 01:46:08;;;;;;;39.58;25.60;;;10.00;99.90;;;;;;5012547;27;20100;-87
2021/12/01 01:48:45;;;;;;;39.58;25.10;;;10.10;99.90;;;;;;5026614;27;20052;-87
2021/12/01 01:51:18;;;;;;;39.63;24.10;;;10.10;99.90;;;;;;5015075;27;20481;-86
2021/12/01 01:53:44;;;;;;;37.03;24.25;;;10.10;99.90;;;;;;5010341;27;20080;-87
2021/12/01 01:56:11;;;;;;;37.35;24.80;;;10.10;99.90;;;;;;5028569;27;20462;-87
2021/12/01 01:58:36;;;;;;;37.75;23.92;;;10.00;99.90;;;;;;5028651;27;20146;-86
2021/12/01 02:01:11;;;;;;;33.83;23.63;;;10.10;99.90;;;;;;5007546;27;20941;-87
2021/12/01 02:03:42;;;;;;;35.95;22.92;;;10.10;99.90;;;;;;5025546;27;20058;-87
2021/12/01 02:06:09;;;;;;;32.75;22.75;;;10.10;99.90;;;;;;5021979;27;20588;-85
2021/12/01 02:08:40;;;;;;;32.15;21.30;;;10.10;99.90;;;;;;5028127;27;20043;-86
2021/12/01 02:11:10;;;;;;;34.20;21.98;;;10.20;99.90;;;;;;5042046;27;20130;-85
2021/12/01 02:13:36;;;;;;;31.48;19.88;;;10.20;99.90;;;;;;5029131;27;20053;-87
2021/12/01 02:16:02;;;;;;;28.98;18.38;;;10.10;99.90;;;;;;5032933;27;20576;-88
2021/12/01 02:18:28;;;;;;;30.77;19.40;;;10.20;99.90;;;;;;5037103;27;20054;-87
2021/12/01 02:21:13;;;;;;;31.08;18.13;;;10.20;99.90;;;;;;5027917;27;20043;-87
2021/12/01 02:23:52;;;;;;;29.13;17.60;;;10.10;99.90;;;;;;5037173;27;20039;-88
2021/12/01 02:26:22;;;;;;;25.95;16.08;;;10.20;99.90;;;;;;5029261;27;20085;-86
2021/12/01 02:28:52;;;;;;;24.90;15.10;;;10.20;99.90;;;;;;5033323;27;20046;-86
2021/12/01 02:31:22;;;;;;;22.73;14.25;;;10.10;99.90;;;;;;5019324;27;20614;-87
2021/12/01 02:33:48;;;;;;;22.70;13.38;;;10.20;99.90;;;;;;5030217;27;20212;-87
2021/12/01 02:36:15;;;;;;;18.83;11.70;;;10.20;99.90;;;;;;5032621;27;20075;-90
2021/12/01 02:38:43;;;;;;;16.70;11.02;;;10.20;99.90;;;;;;5011052;27;20210;-86
2021/12/01 02:41:09;;;;;;;17.02;11.30;;;10.20;99.90;;;;;;5027930;27;20049;-88
2021/12/01 02:43:36;;;;;;;16.77;10.55;;;10.20;99.90;;;;;;4983363;27;20046;-87
2021/12/01 02:46:05;;;;;;;16.10;9.90;;;10.20;99.90;;;;;;5023094;27;20070;-89
2021/12/01 02:48:34;;;;;;;13.68;9.02;;;10.20;99.90;;;;;;5001571;27;20075;-88
2021/12/01 02:51:04;;;;;;;14.15;9.57;;;10.20;99.90;;;;;;5028097;27;20154;-85
2021/12/01 02:53:30;;;;;;;15.27;9.20;;;10.20;99.90;;;;;;5026187;27;20523;-87
2021/12/01 02:55:59;;;;;;;14.13;9.15;;;10.30;99.90;;;;;;5028620;27;20516;-89
2021/12/01 02:58:27;;;;;;;12.15;7.80;;;10.30;99.90;;;;;;5003769;27;20228;-87
2021/12/01 03:00:54;;;;;;;12.85;8.40;;;10.30;99.90;;;;;;5001791;28;20568;-87
2021/12/01 03:03:21;;;;;;;11.40;7.30;;;10.30;99.90;;;;;;4982996;28;20052;-85
2021/12/01 03:05:48;;;;;;;11.85;7.22;;;10.30;99.90;;;;;;5006172;28;20043;-86
2021/12/01 03:08:16;;;;;;;12.63;7.53;;;10.30;99.90;;;;;;5003043;28;20058;-87
2021/12/01 03:10:49;;;;;;;13.45;7.68;;;10.30;99.90;;;;;;5010576;28;20514;-86
2021/12/01 03:13:19;;;;;;;12.90;8.00;;;10.30;99.90;;;;;;5012174;28;20890;-87
2021/12/01 03:15:45;;;;;;;11.77;7.30;;;10.30;99.90;;;;;;4989955;28;20787;-87
2021/12/01 03:18:12;;;;;;;13.40;7.53;;;10.30;99.90;;;;;;4987369;28;20047;-87
2021/12/01 03:20:38;;;;;;;12.00;7.95;;;10.30;99.90;;;;;;5016539;28;20097;-88
2021/12/01 03:23:08;;;;;;;14.10;8.40;;;10.30;99.90;;;;;;5014323;28;20551;-88
2021/12/01 03:25:34;;;;;;;13.98;8.20;;;10.30;99.90;;;;;;4986006;28;20835;-87
2021/12/01 03:28:02;;;;;;;12.80;7.88;;;10.30;99.90;;;;;;5012110;28;20108;-88
2021/12/01 03:30:33;;;;;;;12.02;8.15;;;10.30;99.90;;;;;;4993821;28;20580;-89
2021/12/01 03:33:01;;;;;;;11.85;7.65;;;10.30;99.90;;;;;;5030448;28;20097;-86
2021/12/01 03:35:27;;;;;;;11.30;7.60;;;10.30;99.90;;;;;;5014679;28;20450;-85
2021/12/01 03:37:53;;;;;;;11.00;7.13;;;10.30;99.90;;;;;;4969418;28;20585;-87
2021/12/01 03:40:19;;;;;;;9.80;6.50;;;10.30;99.90;;;;;;5015035;28;20734;-85
2021/12/01 03:42:45;;;;;;;8.77;5.60;;;10.30;99.90;;;;;;4991562;28;20055;-87
2021/12/01 03:45:12;;;;;;;8.73;5.68;;;10.30;99.90;;;;;;5004650;28;20047;-87
2021/12/01 03:47:38;;;;;;;9.93;6.03;;;10.30;99.90;;;;;;5005292;28;20551;-87
2021/12/01 03:50:05;;;;;;;9.18;5.70;;;10.30;99.90;;;;;;5006498;28;20087;-85
2021/12/01 03:52:30;;;;;;;7.78;5.20;;;10.20;99.90;;;;;;4991822;28;20043;-86
2021/12/01 03:54:56;;;;;;;8.23;5.03;;;10.30;99.90;;;;;;5007239;28;20111;-85
2021/12/01 03:57:22;;;;;;;7.50;4.85;;;10.30;99.90;;;;;;5009301;28;20298;-83
2021/12/01 03:59:48;;;;;;;7.20;4.80;;;10.20;99.90;;;;;;5010040;28;20528;-84
2021/12/01 04:02:15;;;;;;;6.95;4.32;;;10.20;99.90;;;;;;5023232;28;20334;-84
2021/12/01 04:04:40;;;;;;;7.80;4.90;;;10.20;99.90;;;;;;5019884;28;20436;-85
2021/12/01 04:07:06;;;;;;;8.93;4.50;;;10.20;99.90;;;;;;5026297;28;20047;-84
2021/12/01 04:09:34;;;;;;;6.97;4.10;;;10.20;99.90;;;;;;5004490;28;20095;-84
2021/12/01 04:12:00;;;;;;;7.32;4.50;;;10.20;99.90;;;;;;5005112;28;20524;-87
2021/12/01 04:14:28;;;;;;;6.97;4.60;;;10.10;99.90;;;;;;4997810;28;20054;-85
2021/12/01 04:16:54;;;;;;;7.60;4.50;;;10.20;99.90;;;;;;5003946;28;20071;-84
2021/12/01 04:19:20;;;;;;;7.78;4.25;;;10.10;99.90;;;;;;5024188;28;20052;-85
2021/12/01 04:21:46;;;;;;;6.80;4.43;;;10.10;99.90;;;;;;5001912;28;20206;-88
2021/12/01 04:24:12;;;;;;;8.25;4.25;;;10.00;99.90;;;;;;5026640;28;20066;-87
2021/12/01 04:26:38;;;;;;;7.65;4.05;;;10.00;99.90;;;;;;5005543;28;20134;-89
2021/12/01 04:29:05;;;;;;;6.75;4.18;;;10.00;99.90;;;;;;5028005;28;20102;-86
2021/12/01 04:31:33;;;;;;;6.20;3.95;;;10.00;99.90;;;;;;5004004;28;20164;-85
2021/12/01 04:34:00;;;;;;;5.82;3.58;;;10.00;99.90;;;;;;5025898;28;20452;-86
2021/12/01 04:36:32;;;;;;;7.03;3.50;;;9.90;99.90;;;;;;5004756;28;20753;-85
2021/12/01 04:38:59;;;;;;;5.45;3.42;;;9.90;99.90;;;;;;5003171;28;20354;-83
2021/12/01 04:41:27;;;;;;;5.97;3.42;;;9.90;99.90;;;;;;5003959;28;20530;-85
2021/12/01 04:43:53;;;;;;;4.97;3.10;;;9.90;99.90;;;;;;5002701;28;20552;-91
2021/12/01 04:46:20;;;;;;;5.13;3.17;;;9.80;99.90;;;;;;5022214;28;20485;-88
2021/12/01 04:48:48;;;;;;;5.10;3.20;;;9.90;99.90;;;;;;5007695;28;20067;-86
2021/12/01 04:51:14;;;;;;;4.68;3.08;;;9.80;99.90;;;;;;5021468;28;20440;-84
2021/12/01 04:53:40;;;;;;;6.97;3.08;;;9.80;99.90;;;;;;5028142;28;20040;-89
2021/12/01 04:56:06;;;;;;;5.75;3.05;;;9.90;99.90;;;;;;5027315;28;20449;-86
2021/12/01 04:58:33;;;;;;;5.68;3.40;;;9.80;99.90;;;;;;5024122;28;20044;-84
2021/12/01 05:01:02;;;;;;;5.80;3.70;;;9.80;99.90;;;;;;5024445;28;20134;-83
2021/12/01 05:03:30;;;;;;;7.38;3.80;;;9.70;99.90;;;;;;5003731;28;20154;-86
2021/12/01 05:05:56;;;;;;;6.50;3.70;;;9.70;99.90;;;;;;4989135;28;20558;-84
2021/12/01 05:08:25;;;;;;;5.90;3.63;;;9.70;99.90;;;;;;5023280;28;20039;-89
2021/12/01 05:10:51;;;;;;;5.70;3.50;;;9.70;99.90;;;;;;5008034;28;20054;-90
2021/12/01 05:13:17;;;;;;;6.00;3.63;;;9.60;99.90;;;;;;5034016;28;20309;-85
2021/12/01 05:15:43;;;;;;;6.15;3.40;;;9.60;99.90;;;;;;5011912;28;20055;-85
2021/12/01 05:18:08;;;;;;;5.80;3.60;;;9.60;99.90;;;;;;5008511;28;20059;-87
2021/12/01 05:20:36;;;;;;;6.65;4.10;;;9.60;99.90;;;;;;5012143;28;20551;-87
2021/12/01 05:23:02;;;;;;;7.50;4.10;;;9.50;99.90;;;;;;5026270;28;20055;-89
2021/12/01 05:25:31;;;;;;;5.85;3.63;;;9.50;99.90;;;;;;5013022;28;20573;-84
2021/12/01 05:27:56;;;;;;;7.40;4.35;;;9.50;99.90;;;;;;5023703;28;20039;-91
2021/12/01 05:30:22;;;;;;;5.72;3.67;;;9.50;99.90;;;;;;5018699;28;20086;-86
2021/12/01 05:32:51;;;;;;;6.40;4.10;;;9.40;99.90;;;;;;5004497;28;20048;-91
2021/12/01 05:35:31;;;;;;;6.93;3.78;;;9.40;99.90;;;;;;5006043;28;20113;-89
2021/12/01 05:38:07;;;;;;;6.07;4.00;;;9.40;99.90;;;;;;5008456;28;20044;-85
2021/12/01 05:40:38;;;;;;;7.20;3.85;;;9.40;99.90;;;;;;4998570;28;20548;-90
2021/12/01 05:43:04;;;;;;;6.93;3.70;;;9.40;99.90;;;;;;5026104;28;20052;-85
2021/12/01 05:45:30;;;;;;;6.40;4.00;;;9.40;99.90;;;;;;5017113;28;20047;-89
2021/12/01 05:47:55;;;;;;;6.30;3.95;;;9.30;99.90;;;;;;4984610;28;20086;-87
2021/12/01 05:50:24;;;;;;;6.68;3.95;;;9.30;99.90;;;;;;5025418;28;20039;-84
2021/12/01 05:52:50;;;;;;;6.00;3.65;;;9.30;99.90;;;;;;5021976;28;20426;-87
2021/12/01 05:55:23;;;;;;;6.70;4.18;;;9.30;99.90;;;;;;5001267;28;20066;-88
2021/12/01 05:57:49;;;;;;;7.80;4.22;;;9.30;99.90;;;;;;5025390;28;20043;-87
2021/12/01 06:00:16;;;;;;;6.13;3.90;;;9.30;99.90;;;;;;4997193;28;20374;-84
2021/12/01 06:02:43;;;;;;;6.00;3.85;;;9.20;99.90;;;;;;4996194;28;20066;-86
2021/12/01 06:05:09;;;;;;;7.38;3.85;;;9.20;99.90;;;;;;4981991;28;20406;-84
2021/12/01 06:07:35;;;;;;;6.78;4.03;;;9.20;99.90;;;;;;5004691;28;20044;-87
2021/12/01 06:10:02;;;;;;;6.32;4.00;;;9.20;99.90;;;;;;5002584;28;20473;-86
2021/12/01 06:12:29;;;;;;;6.97;4.50;;;9.20;99.90;;;;;;4991023;28;20044;-87
2021/12/01 06:14:56;;;;;;;6.57;4.35;;;9.20;99.90;;;;;;4991943;28;20771;-85
2021/12/01 06:17:22;;;;;;;6.38;4.22;;;9.20;99.90;;;;;;5012939;28;20086;-86
2021/12/01 06:19:48;;;;;;;7.47;4.80;;;9.10;99.90;;;;;;4985963;28;20752;-88
2021/12/01 06:22:14;;;;;;;7.43;4.25;;;9.10;99.90;;;;;;4991759;28;20055;-84
2021/12/01 06:24:42;;;;;;;7.05;4.60;;;9.20;99.90;;;;;;5011292;28;20071;-86
2021/12/01 06:27:07;;;;;;;7.05;4.57;;;9.10;99.90;;;;;;5007807;28;20520;-87
2021/12/01 06:29:34;;;;;;;6.95;4.60;;;9.10;99.90;;;;;;4994539;28;20055;-88
2021/12/01 06:31:59;;;;;;;6.80;4.50;;;9.10;99.90;;;;;;5002341;28;20054;-90
2021/12/01 06:34:25;;;;;;;7.00;4.80;;;9.10;99.90;;;;;;5016169;28;20427;-87
2021/12/01 06:36:51;;;;;;;7.05;4.50;;;9.10;99.90;;;;;;4988090;28;20120;-86
2021/12/01 06:39:19;;;;;;;7.63;4.68;;;9.10;99.90;;;;;;5011259;28;20504;-85
2021/12/01 06:41:45;;;;;;;6.60;4.45;;;9.10;99.90;;;;;;4983723;28;20332;-88
2021/12/01 06:44:11;;;;;;;8.77;5.22;;;9.00;99.90;;;;;;4998276;28;20044;-86
2021/12/01 06:46:36;;;;;;;7.40;4.63;;;9.00;99.90;;;;;;4993402;28;20063;-85
2021/12/01 06:49:03;;;;;;;7.30;5.07;;;9.00;99.90;;;;;;5007508;28;20058;-84
2021/12/01 06:51:29;;;;;;;7.80;5.03;;;9.00;99.90;;;;;;5006327;28;20543;-82
2021/12/01 06:53:55;;;;;;;6.72;4.93;;;9.00;99.90;;;;;;4991137;28;20135;-83
2021/12/01 06:56:22;;;;;;;7.35;4.70;;;9.00;99.90;;;;;;4985819;28;20782;-87
2021/12/01 06:58:49;;;;;;;6.70;4.70;;;9.00;99.90;;;;;;5012297;28;20518;-84
2021/12/01 07:01:15;;;;;;;7.68;4.95;;;9.00;99.90;;;;;;5014946;27;20583;-85
2021/12/01 07:03:44;;;;;;;6.40;4.15;;;9.00;99.90;;;;;;5024587;27;20042;-87
2021/12/01 07:06:10;;;;;;;6.47;4.82;;;9.00;99.90;;;;;;5013245;27;20039;-87
2021/12/01 07:08:36;;;;;;;6.78;4.90;;;9.00;99.90;;;;;;5004048;27;20047;-86
2021/12/01 07:11:06;;;;;;;8.38;4.55;;;9.00;99.90;;;;;;5025081;27;20942;-87
2021/12/01 07:13:33;;;;;;;6.05;4.38;;;9.00;99.90;;;;;;5009412;27;20053;-85
2021/12/01 07:16:00;;;;;;;7.35;4.45;;;9.00;99.90;;;;;;5015833;27;20452;-84
2021/12/01 07:18:26;;;;;;;7.10;4.70;;;8.90;99.90;;;;;;5026218;27;20054;-84
2021/12/01 07:20:52;;;;;;;8.30;4.80;;;8.90;99.90;;;;;;5027500;27;20488;-86
2021/12/01 07:23:18;;;;;;;6.47;4.35;;;8.90;99.90;;;;;;5005234;27;20050;-85
2021/12/01 07:25:47;;;;;;;6.32;4.30;;;8.90;99.90;;;;;;5025534;27;20039;-87
2021/12/01 07:28:13;;;;;;;6.97;4.18;;;8.90;99.90;;;;;;5028611;27;20086;-89
2021/12/01 07:30:41;;;;;;;5.38;3.63;;;8.90;99.90;;;;;;5032974;27;20134;-88
2021/12/01 07:33:10;;;;;;;5.75;3.92;;;9.00;99.90;;;;;;5011061;27;20050;-83
2021/12/01 07:35:41;;;;;;;6.38;4.22;;;8.90;99.90;;;;;;5004218;27;20519;-85
2021/12/01 07:38:06;;;;;;;5.82;3.97;;;8.90;99.90;;;;;;5029754;27;20072;-84
2021/12/01 07:40:32;;;;;;;5.72;3.95;;;8.90;99.90;;;;;;5002649;27;20051;-86
2021/12/01 07:42:58;;;;;;;6.45;4.07;;;8.90;99.90;;;;;;5006875;27;20050;-88
2021/12/01 07:45:24;;;;;;;5.47;3.85;;;8.90;99.90;;;;;;5009635;27;20043;-86
2021/12/01 07:47:49;;;;;;;6.13;3.90;;;8.90;99.90;;;;;;5014154;27;20047;-86
2021/12/01 07:50:16;;;;;;;6.00;3.60;;;8.90;99.90;;;;;;5038203;27;20138;-84
2021/12/01 07:52:41;;;;;;;6.43;3.50;;;8.90;99.90;;;;;;5009845;27;20047;-83
2021/12/01 07:55:08;;;;;;;4.15;3.08;;;8.90;99.90;;;;;;4988582;28;20551;-84
2021/12/01 07:57:34;;;;;;;4.40;2.92;;;8.90;99.90;;;;;;5026811;27;20431;-84
2021/12/01 08:00:00;;;;;;;5.15;3.22;;;9.00;99.90;;;;;;5022806;28;20556;-83
2021/12/01 08:02:26;;;;;;;4.57;3.22;;;9.00;99.90;;;;;;5010463;28;20525;-84
2021/12/01 08:04:53;;;;;;;4.90;3.30;;;9.00;99.90;;;;;;5025847;28;20046;-87
2021/12/01 08:07:19;;;;;;;5.88;3.60;;;9.00;99.90;;;;;;4991023;28;20054;-85
2021/12/01 08:09:45;;;;;;;5.45;3.67;;;9.00;99.90;;;;;;4984577;28;20218;-86
2021/12/01 08:12:14;;;;;;;5.55;3.50;;;9.00;99.90;;;;;;5028509;28;20302;-87
2021/12/01 08:14:48;;;;;;;5.53;3.17;;;9.00;99.90;;;;;;5026564;28;20246;-86
2021/12/01 08:17:17;;;;;;;5.15;3.47;;;9.10;99.90;;;;;;5027348;28;21201;-87
2021/12/01 08:19:42;;;;;;;5.75;3.45;;;9.10;99.90;;;;;;5002656;28;20111;-84
2021/12/01 08:22:09;;;;;;;5.88;3.67;;;9.10;99.90;;;;;;5017179;28;20054;-84
2021/12/01 08:24:36;;;;;;;5.80;3.40;;;9.10;99.90;;;;;;5001791;28;20587;-89
2021/12/01 08:27:02;;;;;;;5.90;3.50;;;9.10;99.90;;;;;;5002630;28;20044;-86
2021/12/01 08:29:28;;;;;;;7.45;3.80;;;9.10;99.90;;;;;;5022897;28;20045;-88
2021/12/01 08:31:53;;;;;;;5.57;3.40;;;9.10;99.90;;;;;;5029897;28;20090;-84
2021/12/01 08:34:19;;;;;;;5.70;3.35;;;9.10;99.90;;;;;;5005221;27;20112;-86
2021/12/01 08:36:46;;;;;;;5.38;3.38;;;9.10;99.90;;;;;;5032663;27;20128;-88
2021/12/01 08:39:12;;;;;;;6.03;4.03;;;9.20;99.90;;;;;;5029770;27;20912;-83
2021/12/01 08:41:38;;;;;;;6.20;3.55;;;9.20;99.90;;;;;;5032407;27;20065;-83
2021/12/01 08:44:04;;;;;;;5.80;3.72;;;9.30;99.90;;;;;;5012304;27;20055;-84
2021/12/01 08:46:33;;;;;;;7.15;4.00;;;9.40;99.90;;;;;;5007307;27;20892;-87
2021/12/01 08:48:59;;;;;;;6.88;3.75;;;9.40;99.90;;;;;;5018784;27;20392;-84
2021/12/01 08:51:26;;;;;;;6.40;4.00;;;9.40;99.90;;;;;;5036429;27;20562;-82
2021/12/01 08:53:53;;;;;;;5.85;3.95;;;9.50;99.90;;;;;;5029107;27;20043;-87
2021/12/01 08:56:19;;;;;;;6.15;4.18;;;9.50;99.90;;;;;;5011185;27;20218;-83
2021/12/01 08:58:45;;;;;;;6.45;4.55;;;9.50;99.90;;;;;;4991797;27;20555;-83
2021/12/01 09:01:11;;;;;;;8.68;4.32;;;9.50;99.90;;;;;;5028855;27;20047;-85
2021/12/01 09:03:37;;;;;;;8.10;4.30;;;9.50;99.90;;;;;;5012438;27;20047;-85
2021/12/01 09:06:03;;;;;;;7.80;4.50;;;9.50;99.90;;;;;;5007840;27;20039;-85
2021/12/01 09:08:29;;;;;;;7.90;5.07;;;9.50;99.90;;;;;;5020420;27;20878;-84
2021/12/01 09:10:59;;;;;;;8.13;5.38;;;9.50;99.90;;;;;;4995910;27;20048;-88
2021/12/01 09:13:27;;;;;;;8.50;5.43;;;9.50;99.90;;;;;;5021150;27;20114;-87
2021/12/01 09:16:02;;;;;;;10.30;5.80;;;9.50;99.90;;;;;;5028419;27;20043;-86
2021/12/01 09:18:29;;;;;;;8.32;5.78;;;9.40;99.90;;;;;;5027239;27;20413;-86
2021/12/01 09:20:56;;;;;;;10.60;6.38;;;9.30;99.90;;;;;;5008051;27;20085;-86
2021/12/01 09:23:26;;;;;;;10.00;4.38;;;9.40;99.90;;;;;;5006624;27;20823;-86
2021/12/01 09:25:52;;;;;;;7.88;3.83;;;9.40;99.90;;;;;;5033498;27;20142;-84
2021/12/01 09:28:22;;;;;;;7.35;4.25;;;9.40;99.90;;;;;;5028757;27;20142;-87
2021/12/01 09:30:52;;;;;;;7.07;3.67;;;9.50;99.90;;;;;;5035224;27;20042;-88
2021/12/01 09:33:18;;;;;;;9.10;3.20;;;9.50;99.90;;;;;;5021581;27;20061;-86
2021/12/01 09:35:45;;;;;;;8.15;2.60;;;9.50;99.90;;;;;;5050130;27;20050;-84
2021/12/01 09:38:14;;;;;;;8.90;2.13;;;9.60;99.90;;;;;;5032277;27;20917;-84
2021/12/01 09:40:51;;;;;;;7.72;2.50;;;9.50;99.90;;;;;;5018433;27;20077;-83
2021/12/01 09:43:22;;;;;;;8.07;2.70;;;9.50;99.90;;;;;;5027390;27;20075;-83
2021/12/01 09:45:48;;;;;;;8.82;2.25;;;9.50;99.90;;;;;;5026972;27;21017;-83
2021/12/01 09:48:14;;;;;;;7.15;2.00;;;9.50;99.90;;;;;;5029629;27;20054;-86
2021/12/01 09:50:40;;;;;;;8.77;1.77;;;9.50;99.90;;;;;;5010954;27;20047;-85
2021/12/01 09:53:06;;;;;;;9.02;1.90;;;9.60;99.90;;;;;;5010885;27;20047;-83
2021/12/01 09:55:36;;;;;;;9.75;1.92;;;9.60;99.90;;;;;;5000889;27;20331;-91
2021/12/01 09:58:11;;;;;;;9.20;2.03;;;9.70;99.90;;;;;;5027823;27;20571;-84
2021/12/01 10:00:43;;;;;;;10.75;1.70;;;10.00;99.90;;;;;;5023461;27;20055;-82
2021/12/01 10:03:10;;;;;;;11.05;2.05;;;10.10;99.90;;;;;;5006900;27;20592;-84
2021/12/01 10:06:09;;;;;;;10.10;1.73;;;10.20;99.90;;;;;;5021372;27;20051;-82
2021/12/01 10:08:41;;;;;;;9.98;1.70;;;10.00;99.90;;;;;;5017559;27;20075;-83
2021/12/01 10:11:14;;;;;;;10.18;2.00;;;10.00;99.90;;;;;;5026134;27;20238;-86
2021/12/01 10:13:46;;;;;;;9.25;1.67;;;9.90;99.90;;;;;;5002285;27;20880;-82
2021/12/01 10:16:15;;;;;;;11.45;1.58;;;9.80;99.90;;;;;;5024366;27;20039;-84
2021/12/01 10:18:47;;;;;;;11.65;2.20;;;9.80;99.90;;;;;;5018821;27;20492;-82
2021/12/01 10:21:43;;;;;;;7.63;1.35;;;9.70;99.90;;;;;;5037716;27;20240;-83
2021/12/01 10:24:13;;;;;;;9.27;1.50;;;9.80;99.90;;;;;;5022057;27;20054;-84
2021/12/01 10:26:46;;;;;;;8.75;1.65;;;9.70;99.90;;;;;;5023561;27;20396;-84
2021/12/01 10:29:18;;;;;;;11.40;1.65;;;9.70;99.90;;;;;;5025772;27;20486;-81
2021/12/01 10:31:44;;;;;;;9.35;1.50;;;9.70;99.90;;;;;;5013546;27;20062;-84
2021/12/01 10:34:12;;;;;;;10.82;1.60;;;9.70;99.90;;;;;;5024422;27;20039;-82
2021/12/01 10:36:38;;;;;;;7.47;1.35;;;9.60;99.90;;;;;;5024161;27;20035;-83
2021/12/01 10:39:06;;;;;;;8.30;1.30;;;9.50;99.90;;;;;;5018110;27;20047;-85
2021/12/01 10:41:37;;;;;;;7.53;1.30;;;9.50;99.90;;;;;;5002475;27;20059;-83
2021/12/01 10:44:32;;;;;;;8.63;1.30;;;9.50;99.90;;;;;;5027095;27;20062;-84
2021/12/01 10:47:10;;;;;;;7.97;0.90;;;9.50;99.90;;;;;;5024144;27;20050;-81
2021/12/01 10:49:44;;;;;;;6.72;1.00;;;9.50;99.90;;;;;;5019865;27;20100;-84
2021/12/01 10:52:26;;;;;;;7.18;1.15;;;9.50;99.90;;;;;;5029061;27;20054;-82
2021/12/01 10:55:23;;;;;;;7.50;1.20;;;9.50;99.90;;;;;;5024817;27;20054;-82
2021/12/01 10:57:54;;;;;;;10.88;1.50;;;9.40;99.90;;;;;;4992359;27;20080;-82
2021/12/01 11:00:26;;;;;;;9.25;1.23;;;9.40;99.90;;;;;;5003087;27;20055;-82
2021/12/01 11:02:53;;;;;;;11.77;1.52;;;9.40;99.90;;;;;;5009874;27;20332;-83
2021/12/01 11:05:28;;;;;;;11.68;1.75;;;9.40;99.90;;;;;;5007503;27;20062;-84
2021/12/01 11:07:54;;;;;;;9.82;1.83;;;9.40;99.90;;;;;;5007204;27;20815;-82
2021/12/01 11:10:25;;;;;;;15.13;1.98;;;9.40;99.90;;;;;;5025082;27;20428;-83
2021/12/01 11:12:58;;;;;;;12.75;1.98;;;9.40;99.90;;;;;;5045160;27;20472;-86
2021/12/01 11:15:33;;;;;;;10.18;1.85;;;9.40;99.90;;;;;;5004226;27;20074;-81
2021/12/01 11:18:00;;;;;;;14.02;1.85;;;9.40;99.90;;;;;;5023533;27;20067;-88
2021/12/01 11:20:36;;;;;;;11.63;1.70;;;9.40;99.90;;;;;;4998575;27;20035;-82
2021/12/01 11:23:23;;;;;;;9.95;1.80;;;9.40;99.90;;;;;;5048079;27;20180;-83
2021/12/01 11:25:52;;;;;;;11.23;1.45;;;9.40;99.90;;;;;;5025875;27;20457;-84
2021/12/01 11:28:20;;;;;;;13.20;1.80;;;9.40;99.90;;;;;;5042500;27;20126;-85
2021/12/01 11:30:49;;;;;;;10.55;1.77;;;9.40;99.90;;;;;;5017474;27;20552;-83
2021/12/01 11:33:17;;;;;;;14.30;1.90;;;9.50;99.90;;;;;;5026888;27;20134;-84
2021/12/01 11:35:45;;;;;;;11.95;1.67;;;9.50;99.90;;;;;;5000063;27;20579;-84
2021/12/01 11:38:12;;;;;;;13.18;2.00;;;9.50;99.90;;;;;;5026934;27;20081;-82
2021/12/01 11:40:38;;;;;;;13.32;2.08;;;9.60;99.90;;;;;;5024408;27;20525;-83
2021/12/01 11:43:08;;;;;;;12.02;2.17;;;9.70;99.90;;;;;;5016651;27;20373;-84
2021/12/01 11:45:36;;;;;;;13.63;2.22;;;9.70;99.90;;;;;;5028062;27;20445;-84
2021/12/01 11:48:02;;;;;;;15.93;1.80;;;9.80;99.90;;;;;;5025592;27;20047;-88
2021/12/01 11:50:35;;;;;;;10.05;1.88;;;9.80;99.90;;;;;;5026725;27;20829;-84
2021/12/01 11:53:22;;;;;;;13.63;1.98;;;9.70;99.90;;;;;;5021850;27;20077;-83
2021/12/01 11:56:01;;;;;;;14.63;2.47;;;9.70;99.90;;;;;;5024335;27;20045;-86
2021/12/01 11:58:47;;;;;;;16.33;2.50;;;9.70;99.90;;;;;;5018348;28;20528;-83
2021/12/01 12:01:35;;;;;;;18.70;2.55;;;9.70;99.90;;;;;;5026529;28;20055;-84
2021/12/01 12:04:02;;;;;;;13.52;2.03;;;9.70;99.90;;;;;;5023934;28;20213;-83
2021/12/01 12:06:37;;;;;;;14.32;2.22;;;9.70;99.90;;;;;;4998714;28;20451;-84
2021/12/01 12:09:08;;;;;;;13.07;2.08;;;9.80;99.90;;;;;;5016919;28;20876;-83
2021/12/01 12:11:45;;;;;;;12.68;2.33;;;9.90;99.90;;;;;;5017827;28;20575;-83
2021/12/01 12:14:17;;;;;;;9.55;2.05;;;9.80;99.90;;;;;;5015399;28;20739;-82
2021/12/01 12:17:01;;;;;;;19.35;3.05;;;9.90;99.90;;;;;;5019236;28;20313;-80
2021/12/01 12:19:49;;;;;;;13.60;2.50;;;9.90;99.90;;;;;;5034245;28;20154;-81
2021/12/01 12:22:19;;;;;;;17.00;2.45;;;9.90;99.90;;;;;;4997466;28;20043;-84
2021/12/01 12:24:55;;;;;;;15.18;2.53;;;9.80;99.90;;;;;;5010274;28;20407;-83
2021/12/01 12:27:43;;;;;;;14.00;2.20;;;9.70;99.90;;;;;;5043151;28;20586;-82
2021/12/01 12:30:13;;;;;;;19.48;2.65;;;9.60;99.90;;;;;;5023695;28;21036;-84
2021/12/01 12:32:42;;;;;;;14.60;2.20;;;9.60;99.90;;;;;;5021211;28;20385;-83
2021/12/01 12:35:13;;;;;;;15.38;2.55;;;9.60;99.90;;;;;;5013080;28;20102;-83
2021/12/01 12:37:39;;;;;;;15.25;2.63;;;9.50;99.90;;;;;;5029364;28;20483;-83
2021/12/01 12:40:26;;;;;;;13.88;2.42;;;9.50;99.90;;;;;;5018832;28;20039;-83
2021/12/01 12:43:07;;;;;;;15.38;2.92;;;9.40;99.90;;;;;;4987512;28;20058;-83
2021/12/01 12:45:34;;;;;;;14.45;2.47;;;9.50;99.90;;;;;;5022568;28;20079;-83
2021/12/01 12:48:00;;;;;;;15.60;2.30;;;9.40;99.90;;;;;;5020165;28;20083;-84
2021/12/01 12:50:26;;;;;;;17.83;3.17;;;9.40;99.90;;;;;;5023954;28;20062;-81
2021/12/01 12:52:55;;;;;;;13.50;2.13;;;9.40;99.90;;;;;;5022734;28;20051;-83
2021/12/01 12:55:24;;;;;;;16.15;2.88;;;9.30;99.90;;;;;;5028133;28;20104;-86
2021/12/01 12:57:57;;;;;;;16.15;2.58;;;9.30;99.90;;;;;;5025014;28;20642;-83
2021/12/01 13:00:32;;;;;;;18.85;2.58;;;9.30;99.90;;;;;;5020280;28;20726;-83
2021/12/01 13:03:21;;;;;;;12.40;2.22;;;9.30;99.90;;;;;;5019503;28;20125;-85